createdAt,value
2019-04-25T00:04:28.355Z,999.67
2019-04-25T00:09:24.941Z,999.64
2019-04-25T00:14:20.462Z,999.58
2019-04-25T00:19:16.367Z,999.46
2019-04-25T00:24:12.899Z,999.31
2019-04-25T00:29:09.655Z,999.32
2019-04-25T00:34:06.209Z,999.66
2019-04-25T00:39:01.998Z,999.81
2019-04-25T00:43:57.601Z,999.88
2019-04-25T00:48:53.232Z,999.95
2019-04-25T00:53:51.760Z,999.94
2019-04-25T00:58:46.890Z,999.97
2019-04-25T01:03:44.133Z,999.91
2019-04-25T01:08:41.498Z,999.93
2019-04-25T01:13:36.637Z,999.84
2019-04-25T01:18:33.735Z,999.65
2019-04-25T01:23:29.370Z,999.56
2019-04-25T01:28:25.240Z,999.59
2019-04-25T01:33:20.931Z,999.30
2019-04-25T01:38:16.661Z,999.35
2019-04-25T01:43:13.843Z,999.41
2019-04-25T01:48:10.303Z,999.46
2019-04-25T01:53:05.935Z,999.52
2019-04-25T01:58:03.748Z,999.69
2019-04-25T02:03:00.586Z,999.77
2019-04-25T02:07:57.122Z,999.93
2019-04-25T02:12:55.195Z,1000.07
2019-04-25T02:17:51.106Z,1000.15
2019-04-25T02:22:47.867Z,1000.16
2019-04-25T02:27:44.206Z,1000.32
2019-04-25T02:32:40.697Z,1000.46
2019-04-25T02:37:36.203Z,1000.42
2019-04-25T02:42:34.234Z,1000.38
2019-04-25T02:47:30.547Z,1000.32
2019-04-25T02:52:26.336Z,1000.30
2019-04-25T02:57:22.122Z,1000.20
2019-04-25T03:02:17.817Z,1000.10
2019-04-25T03:07:16.962Z,1000.10
2019-04-25T03:12:26.747Z,1000.22
2019-04-25T03:17:13.979Z,1000.11
2019-04-25T03:22:11.684Z,1000.24
2019-04-25T03:27:07.401Z,1000.19
2019-04-25T03:32:08.781Z,1000.18
2019-04-25T03:37:05.251Z,1000.21
2019-04-25T03:42:02.205Z,1000.30
2019-04-25T03:46:57.605Z,1000.34
2019-04-25T03:51:53.898Z,1000.40
2019-04-25T03:56:54.356Z,1000.44
2019-04-25T04:01:49.466Z,1000.45
2019-04-25T04:06:45.409Z,1000.33
2019-04-25T04:11:43.415Z,1000.41
2019-04-25T04:16:38.858Z,1000.45
2019-04-25T04:21:34.548Z,1000.43
2019-04-25T04:26:30.607Z,1000.49
2019-04-25T04:31:26.496Z,1000.49
2019-04-25T04:36:23.706Z,1000.55
2019-04-25T04:41:19.039Z,1000.52
2019-04-25T04:46:17.145Z,1000.52
2019-04-25T04:51:14.879Z,1000.52
2019-04-25T04:56:11.328Z,1000.60
2019-04-25T05:01:06.913Z,1000.43
2019-04-25T05:06:03.976Z,1000.57
2019-04-25T05:11:00.526Z,1000.60
2019-04-25T05:15:56.698Z,1000.68
2019-04-25T05:20:54.292Z,1000.70
2019-04-25T05:25:50.753Z,1000.66
2019-04-25T05:30:46.003Z,1000.66
2019-04-25T05:35:42.264Z,1000.59
2019-04-25T05:40:38.080Z,1000.60
2019-04-25T05:45:34.226Z,1000.80
2019-04-25T05:50:30.082Z,1000.73
2019-04-25T05:55:26.590Z,1000.81
2019-04-25T06:00:24.721Z,1000.98
2019-04-25T06:05:23.427Z,1000.97
2019-04-25T06:10:21.406Z,1001.04
2019-04-25T06:15:18.265Z,1001.19
2019-04-25T06:20:14.470Z,1001.20
2019-04-25T06:25:13.718Z,1001.22
2019-04-25T06:30:09.756Z,1001.12
2019-04-25T06:35:05.407Z,1000.90
2019-04-25T06:40:01.717Z,1001.06
2019-04-25T06:44:57.675Z,1001.21
2019-04-25T06:49:53.556Z,1001.24
2019-04-25T06:54:50.744Z,1001.18
2019-04-25T06:59:46.328Z,1001.10
2019-04-25T07:04:43.517Z,1001.37
2019-04-25T07:09:40.546Z,1001.30
2019-04-25T07:14:36.980Z,1001.22
2019-04-25T07:19:35.481Z,1001.30
2019-04-25T07:24:31.689Z,1001.06
2019-04-25T07:29:28.421Z,1001.28
2019-04-25T07:34:25.292Z,1001.28
2019-04-25T07:39:23.596Z,1001.23
2019-04-25T07:44:28.511Z,1001.20
2019-04-25T07:49:20.545Z,1001.26
2019-04-25T07:54:17.541Z,1001.46
2019-04-25T07:59:13.880Z,1001.49
2019-04-25T08:04:09.973Z,1001.69
2019-04-25T08:09:07.061Z,1001.59
2019-04-25T08:14:03.471Z,1001.53
2019-04-25T08:18:59.286Z,1001.51
2019-04-25T08:23:55.033Z,1001.65
2019-04-25T08:28:55.735Z,1001.50
2019-04-25T08:33:50.189Z,1001.48
2019-04-25T08:38:45.615Z,1001.61
2019-04-25T08:43:43.674Z,1001.83
2019-04-25T08:48:40.655Z,1001.71
2019-04-25T08:53:36.728Z,1001.77
2019-04-25T08:58:34.460Z,1001.76
2019-04-25T09:03:30.199Z,1001.79
2019-04-25T09:08:27.470Z,1001.81
2019-04-25T09:13:24.139Z,1001.81
2019-04-25T09:18:20.337Z,1001.88
2019-04-25T09:23:16.306Z,1001.91
2019-04-25T09:28:11.856Z,1001.92
2019-04-25T09:33:07.681Z,1002.01
2019-04-25T09:38:04.255Z,1001.95
2019-04-25T09:42:59.642Z,1002.03
2019-04-25T09:47:55.381Z,1002.02
2019-04-25T09:52:51.472Z,1002.01
2019-04-25T09:57:47.597Z,1001.96
2019-04-25T10:02:44.614Z,1001.89
2019-04-25T10:07:40.693Z,1001.93
2019-04-25T10:12:37.358Z,1001.91
2019-04-25T10:17:33.883Z,1001.86
2019-04-25T10:22:29.494Z,1001.91
2019-04-25T10:27:26.010Z,1001.83
2019-04-25T10:32:23.704Z,1002.05
2019-04-25T10:37:19.883Z,1002.16
2019-04-25T10:42:16.347Z,1002.23
2019-04-25T10:47:12.329Z,1002.13
2019-04-25T10:52:08.514Z,1002.00
2019-04-25T10:57:06.612Z,1001.99
2019-04-25T11:02:04.021Z,1001.82
2019-04-25T11:07:03.740Z,1001.74
2019-04-25T11:12:01.166Z,1001.57
2019-04-25T11:16:58.415Z,1001.49
2019-04-25T11:21:55.686Z,1001.47
2019-04-25T11:26:55.159Z,1001.47
2019-04-25T11:31:53.431Z,1001.41
2019-04-25T11:36:49.466Z,1001.23
2019-04-25T11:41:46.080Z,1001.30
2019-04-25T11:46:41.030Z,1001.13
2019-04-25T11:51:34.377Z,1001.14
2019-04-25T11:56:29.742Z,1001.23
2019-04-25T12:01:24.455Z,1001.21
2019-04-25T12:06:19.857Z,1001.13
2019-04-25T12:11:15.012Z,1001.24
2019-04-25T12:16:11.973Z,1001.25
2019-04-25T12:21:07.541Z,1001.15
2019-04-25T12:26:03.860Z,1001.23
2019-04-25T12:30:59.422Z,1001.23
2019-04-25T12:35:56.527Z,1001.31
2019-04-25T12:40:54.078Z,1001.43
2019-04-25T12:45:49.899Z,1001.15
2019-04-25T12:50:48.745Z,1000.96
2019-04-25T12:55:47.360Z,1000.90
2019-04-25T13:00:49.597Z,1000.73
2019-04-25T13:05:44.184Z,1000.65
2019-04-25T13:10:39.321Z,1000.61
2019-04-25T13:15:36.115Z,1000.69
2019-04-25T13:20:31.461Z,1000.66
2019-04-25T13:25:27.642Z,1000.58
2019-04-25T13:30:24.153Z,1000.55
2019-04-25T13:35:21.006Z,1000.62
2019-04-25T13:40:17.512Z,1000.65
2019-04-25T13:45:14.779Z,1000.60
2019-04-25T13:50:10.907Z,1000.43
2019-04-25T13:55:06.865Z,1000.43
2019-04-25T14:00:04.145Z,1000.36
2019-04-25T14:04:59.921Z,1000.37
2019-04-25T14:09:56.391Z,1000.32
2019-04-25T14:14:54.064Z,1000.16
2019-04-25T14:19:49.796Z,1000.07
2019-04-25T14:24:45.910Z,999.99
2019-04-25T14:29:43.684Z,1000.01
2019-04-25T14:34:40.980Z,1000.03
2019-04-25T14:39:38.226Z,999.94
2019-04-25T14:44:34.999Z,1000.00
2019-04-25T14:49:30.706Z,1000.01
2019-04-25T14:54:28.446Z,999.99
2019-04-25T14:59:24.472Z,1000.02
2019-04-25T15:04:20.248Z,999.86
2019-04-25T15:09:15.857Z,999.86
2019-04-25T15:14:11.655Z,999.86
2019-04-25T15:19:09.035Z,999.98
2019-04-25T15:24:04.673Z,999.94
2019-04-25T15:29:00.650Z,999.95
2019-04-25T15:33:56.693Z,999.94
2019-04-25T15:38:52.558Z,999.83
2019-04-25T15:43:48.208Z,999.87
2019-04-25T15:48:44.530Z,999.79
2019-04-25T15:53:42.287Z,999.72
2019-04-25T15:58:37.829Z,999.76
2019-04-25T16:03:35.236Z,999.84
2019-04-25T16:08:31.713Z,999.78
2019-04-25T16:13:28.237Z,999.75
2019-04-25T16:18:24.870Z,999.78
2019-04-25T16:23:20.315Z,999.80
2019-04-25T16:28:16.123Z,999.72
2019-04-25T16:33:12.144Z,999.76
2019-04-25T16:38:08.452Z,999.64
2019-04-25T16:43:04.635Z,999.73
2019-04-25T16:48:01.422Z,999.79
2019-04-25T16:52:57.004Z,999.80
2019-04-25T16:57:52.885Z,999.76
2019-04-25T17:02:48.664Z,999.53
2019-04-25T17:07:44.945Z,999.51
2019-04-25T17:12:40.922Z,999.54
2019-04-25T17:17:36.673Z,999.48
2019-04-25T17:22:32.546Z,999.58
2019-04-25T17:27:29.196Z,999.50
2019-04-25T17:32:24.989Z,999.61
2019-04-25T17:37:20.656Z,999.61
2019-04-25T17:42:17.598Z,999.51
2019-04-25T17:47:13.072Z,999.51
2019-04-25T17:52:08.886Z,999.59
2019-04-25T17:57:05.472Z,999.73
2019-04-25T18:02:02.220Z,999.71
2019-04-25T18:06:57.568Z,999.88
2019-04-25T18:11:53.735Z,999.94
2019-04-25T18:16:49.691Z,1000.03
2019-04-25T18:21:46.603Z,1000.30
2019-04-25T18:26:41.935Z,1000.27
2019-04-25T18:31:37.962Z,1000.33
2019-04-25T18:36:33.698Z,1000.61
2019-04-25T18:41:29.410Z,1000.55
2019-04-25T18:46:25.054Z,1000.63
2019-04-25T18:51:20.668Z,1000.63
2019-04-25T18:56:16.594Z,1000.77
2019-04-25T19:01:12.170Z,1000.75
2019-04-25T19:06:07.750Z,1000.96
2019-04-25T19:11:04.805Z,1001.21
2019-04-25T19:16:00.559Z,1001.08
2019-04-25T19:20:56.650Z,1001.20
2019-04-25T19:25:53.401Z,1001.36
2019-04-25T19:30:49.021Z,1001.54
2019-04-25T19:35:45.673Z,1001.75
2019-04-25T19:40:42.165Z,1001.74
2019-04-25T19:45:37.975Z,1001.76
2019-04-25T19:50:33.817Z,1002.08
2019-04-25T19:55:29.592Z,1002.13
2019-04-25T20:00:25.405Z,1002.20
2019-04-25T20:05:21.699Z,1002.40
2019-04-25T20:10:17.620Z,1002.37
2019-04-25T20:15:13.316Z,1002.27
2019-04-25T20:20:09.319Z,1002.25
2019-04-25T20:25:06.350Z,1002.31
2019-04-25T20:30:01.967Z,1002.39
2019-04-25T20:34:58.618Z,1002.41
2019-04-25T20:39:54.818Z,1002.47
2019-04-25T20:44:51.698Z,1002.64
2019-04-25T20:49:48.776Z,1002.62
2019-04-25T20:54:44.347Z,1002.48
2019-04-25T20:59:40.096Z,1002.51
2019-04-25T21:04:36.358Z,1002.54
2019-04-25T21:09:32.177Z,1002.55
2019-04-25T21:14:27.905Z,1002.54
2019-04-25T21:19:23.896Z,1002.49
2019-04-25T21:24:19.679Z,1002.46
2019-04-25T21:29:15.210Z,1002.38
2019-04-25T21:34:11.057Z,1002.47
2019-04-25T21:39:07.117Z,1002.68
2019-04-25T21:44:03.368Z,1002.74
2019-04-25T21:48:59.372Z,1002.83
2019-04-25T21:53:55.241Z,1002.82
2019-04-25T21:58:51.452Z,1002.86
2019-04-25T22:03:48.308Z,1002.75
2019-04-25T22:08:44.017Z,1002.85
2019-04-25T22:13:39.590Z,1002.88
2019-04-25T22:18:36.975Z,1002.85
2019-04-25T22:23:33.393Z,1002.73
2019-04-25T22:28:30.031Z,1002.86
2019-04-25T22:33:26.327Z,1002.87
2019-04-25T22:38:23.158Z,1002.75
2019-04-25T22:43:19.849Z,1002.83
2019-04-25T22:48:15.662Z,1003.10
2019-04-25T22:53:22.607Z,1003.14
2019-04-25T22:58:11.948Z,1003.17
2019-04-25T23:03:07.465Z,1003.22
2019-04-25T23:08:04.323Z,1003.24
2019-04-25T23:13:00.764Z,1003.27
2019-04-25T23:17:56.422Z,1003.10
2019-04-25T23:22:52.582Z,1003.15
2019-04-25T23:27:49.349Z,1003.23
2019-04-25T23:32:45.198Z,1003.28
2019-04-25T23:37:41.091Z,1003.26
2019-04-25T23:42:38.058Z,1003.27
2019-04-25T23:47:35.103Z,1003.24
2019-04-25T23:52:30.863Z,1003.17
2019-04-25T23:57:27.704Z,1003.22
